San Jose, California
Current Conditions -  °F | °C
As of 9:53 PM on Thursday 30 Oct 2014 (Local Time) from KSJC Reporting Station
Broken Clouds Broken Clouds  
Wind Chill: 62°   Ceiling: 18000
Heat Index: 62°   Visibility: 10mi
Dew Point: 51°   Wind: 5mph
Humidity: 67%   Direction: NA
Pressure: 29.9"   Gusts: NA
Location:  37.35°N, 121.9°W
Report Text: KSJC 310453Z VRB04KT 10SM SCT100 BKN180 17/11 A2990 RMK AO2 SLP125 T01670106
Loading
Personal Weather Stations






























Interactive Weather Map
Tropical Storm Tracking
New forecast layout! Learn more

10-Day Weather Forecast

Advertisements
Track Severe Weather on mobile